Time;durP1;ratioP1;P1;durP2;ratioP2;P2;SDS_P1;SDS_P2;PMS_P1;PMS_P2;Temp;Humidity;BMP_temperature;BMP_pressure;BME280_temperature;BME280_humidity;BME280_pressure;Samples;Min_cycle;Max_cycle;Signal;HPM_P1;HPM_P2
2023/04/05 00:00:28;;;;;;;;;21.75;17.75;;;;;10.05;44.03;101922.91;6249341;22;45543;-66
2023/04/05 00:02:56;;;;;;;;;18.00;17.25;;;;;10.20;43.86;101950.28;6249055;22;47484;-66
2023/04/05 00:05:28;;;;;;;;;16.00;16.00;;;;;10.10;43.54;101923.72;6277129;22;45724;-66
2023/04/05 00:07:54;;;;;;;;;18.25;17.50;;;;;10.23;43.91;101944.03;6277214;22;45256;-65
2023/04/05 00:10:19;;;;;;;;;21.00;17.00;;;;;9.98;43.72;101900.75;6277543;22;45426;-66
2023/04/05 00:12:44;;;;;;;;;16.25;15.00;;;;;10.07;44.20;101918.44;6275641;22;45901;-66
2023/04/05 00:15:10;;;;;;;;;20.00;18.75;;;;;10.23;43.95;101932.50;6277345;22;45277;-66
2023/04/05 00:17:35;;;;;;;;;25.00;18.50;;;;;10.08;44.33;101912.19;6277141;22;45265;-66
2023/04/05 00:20:06;;;;;;;;;23.75;19.00;;;;;10.11;44.09;101918.38;6277634;22;45772;-66
2023/04/05 00:22:34;;;;;;;;;19.75;16.00;;;;;10.24;44.07;101937.81;6276538;22;46041;-66
2023/04/05 00:25:00;;;;;;;;;19.75;16.75;;;;;10.19;44.50;101924.50;6276933;22;45579;-66
2023/04/05 00:27:26;;;;;;;;;23.50;16.25;;;;;10.27;44.55;101942.22;6276953;22;45256;-66
2023/04/05 00:29:51;;;;;;;;;19.75;17.25;;;;;10.25;44.56;101931.56;6277491;22;45182;-66
2023/04/05 00:32:16;;;;;;;;;19.50;17.25;;;;;10.09;44.01;101905.94;6276408;22;45213;-66
2023/04/05 00:34:42;;;;;;;;;29.50;21.75;;;;;10.34;44.18;101944.84;6274797;22;45232;-66
2023/04/05 00:37:07;;;;;;;;;18.75;15.00;;;;;10.23;44.10;101932.50;6276058;22;45350;-66
2023/04/05 00:39:32;;;;;;;;;15.00;12.50;;;;;10.19;44.27;101926.31;6275118;22;45529;-66
2023/04/05 00:41:58;;;;;;;;;19.00;16.00;;;;;10.08;44.55;101906.88;6249114;22;46071;-66
2023/04/05 00:44:23;;;;;;;;;18.00;17.00;;;;;10.20;44.45;101925.38;6277117;22;45324;-66
2023/04/05 00:46:48;;;;;;;;;17.50;16.25;;;;;10.14;44.48;101912.09;6276611;22;45694;-66
2023/04/05 00:49:14;;;;;;;;;18.50;17.50;;;;;10.17;44.39;101925.41;6275652;22;45376;-66
2023/04/05 00:51:41;;;;;;;;;18.25;17.00;;;;;9.91;44.23;101897.28;6277141;22;46137;-66
2023/04/05 00:54:07;;;;;;;;;17.00;15.00;;;;;9.98;44.19;101909.63;6275152;22;45825;-66
2023/04/05 00:56:33;;;;;;;;;16.75;13.50;;;;;9.93;44.15;101903.47;6277312;22;45466;-66
2023/04/05 00:58:59;;;;;;;;;19.00;14.25;;;;;9.82;44.50;101897.34;6276348;22;45272;-66
2023/04/05 01:01:26;;;;;;;;;15.00;15.00;;;;;9.93;44.38;101913.25;6276811;22;46461;-66
2023/04/05 01:03:58;;;;;;;;;19.25;18.00;;;;;9.89;44.74;101908.84;6277122;22;45255;-66
2023/04/05 01:06:26;;;;;;;;;18.25;15.25;;;;;10.02;44.48;101930.06;6277089;22;45259;-66
2023/04/05 01:09:13;;;;;;;;;17.00;16.25;;;;;9.83;44.92;101904.47;6248433;22;45529;-66
2023/04/05 01:11:40;;;;;;;;;21.25;18.00;;;;;9.91;44.68;101910.59;6248505;22;47317;-66
2023/04/05 01:14:06;;;;;;;;;15.50;13.50;;;;;9.93;44.66;101916.81;6275859;22;45327;-66
2023/04/05 01:16:31;;;;;;;;;19.25;17.00;;;;;9.89;45.05;101895.50;6276837;22;45279;-66
2023/04/05 01:18:57;;;;;;;;;15.00;14.75;;;;;9.99;45.29;101911.41;6276799;22;45537;-66
2023/04/05 01:21:44;;;;;;;;;16.25;13.00;;;;;9.99;45.06;101913.19;6248674;22;46759;-66
2023/04/05 01:24:25;;;;;;;;;14.75;14.25;;;;;9.99;44.57;101911.41;6249151;22;45280;-66
2023/04/05 01:26:50;;;;;;;;;15.50;14.75;;;;;10.01;44.58;101911.41;6276714;22;45321;-66
2023/04/05 01:29:41;;;;;;;;;16.25;15.50;;;;;9.94;44.51;101894.56;6248962;22;45501;-66
2023/04/05 01:32:46;;;;;;;;;14.75;13.00;;;;;9.97;44.82;101899.88;6276767;22;46512;-66
2023/04/05 01:35:14;;;;;;;;;17.50;15.00;;;;;9.93;45.17;101898.13;6243199;22;45590;-66
2023/04/05 01:37:43;;;;;;;;;15.00;14.50;;;;;9.71;44.94;101869.94;6276356;22;45582;-66
2023/04/05 01:40:09;;;;;;;;;17.50;16.25;;;;;9.82;45.44;101890.25;6276169;22;45276;-66
2023/04/05 01:42:36;;;;;;;;;17.75;14.25;;;;;9.58;45.28;101854.06;6276016;22;45334;-66
2023/04/05 01:45:01;;;;;;;;;16.25;15.00;;;;;9.68;45.25;101873.50;6276423;22;45790;-66
2023/04/05 01:47:26;;;;;;;;;21.50;15.50;;;;;9.79;45.64;101895.63;6276275;22;45157;-66
2023/04/05 01:49:52;;;;;;;;;15.25;13.00;;;;;9.73;45.14;101892.13;6275997;22;45227;-66
2023/04/05 01:52:17;;;;;;;;;14.25;11.50;;;;;9.59;45.50;101857.63;6274254;22;47093;-66
2023/04/05 01:54:42;;;;;;;;;17.75;16.00;;;;;9.57;44.80;101856.75;6276639;22;45387;-66
2023/04/05 01:57:08;;;;;;;;;14.75;14.25;;;;;9.69;44.85;101880.63;6276509;22;45505;-66
2023/04/05 01:59:33;;;;;;;;;14.25;13.75;;;;;9.74;44.81;101896.53;6276375;22;45320;-66
2023/04/05 02:01:58;;;;;;;;;17.00;14.00;;;;;9.67;45.38;101884.19;6274438;22;48075;-66
2023/04/05 02:04:24;;;;;;;;;14.00;14.00;;;;;9.48;45.03;101851.53;6275920;22;45431;-66
2023/04/05 02:06:50;;;;;;;;;17.75;16.25;;;;;9.69;44.87;101887.72;6275940;22;45426;-66
2023/04/05 02:09:16;;;;;;;;;16.00;13.75;;;;;9.70;44.80;101882.38;6276512;22;45438;-66
2023/04/05 02:11:41;;;;;;;;;17.00;15.75;;;;;9.69;45.45;101872.63;6248115;22;47285;-66
2023/04/05 02:14:06;;;;;;;;;14.25;14.25;;;;;9.37;45.02;101827.63;6276717;22;48580;-66
2023/04/05 02:16:32;;;;;;;;;15.00;13.00;;;;;9.59;45.17;101870.97;6277955;22;45398;-66
2023/04/05 02:18:58;;;;;;;;;16.25;14.75;;;;;9.45;45.03;101847.09;6277685;22;45425;-66
2023/04/05 02:21:24;;;;;;;;;18.25;14.75;;;;;9.58;45.04;101875.38;6277466;22;46093;-66
2023/04/05 02:23:50;;;;;;;;;18.25;13.50;;;;;9.58;45.75;101862.06;6250366;22;45608;-66
2023/04/05 02:26:16;;;;;;;;;18.75;15.75;;;;;9.45;45.23;101841.75;6275976;22;45488;-66
2023/04/05 02:28:41;;;;;;;;;21.25;14.50;;;;;9.46;45.35;101849.75;6249495;22;45531;-66
2023/04/05 02:31:11;;;;;;;;;15.75;15.75;;;;;9.53;45.62;101860.34;6277751;22;45267;-66
2023/04/05 02:33:39;;;;;;;;;16.25;14.50;;;;;9.46;45.20;101846.19;6276807;22;45633;-66
2023/04/05 02:36:06;;;;;;;;;16.25;13.75;;;;;9.48;45.58;101856.84;6249622;22;45332;-66
2023/04/05 02:38:35;;;;;;;;;7.75;5.25;;;;;9.49;45.31;101856.84;6277386;22;45276;-66
2023/04/05 02:41:00;;;;;;;;;16.25;15.00;;;;;9.38;45.83;101843.59;6249688;22;47146;-66
2023/04/05 02:43:26;;;;;;;;;22.25;15.50;;;;;9.44;45.48;101853.34;6277440;22;45389;-66
2023/04/05 02:45:51;;;;;;;;;15.00;12.25;;;;;9.34;45.67;101836.56;6277763;22;45411;-66
2023/04/05 02:48:16;;;;;;;;;18.00;17.75;;;;;9.25;45.55;101818.88;6277250;22;45433;-66
2023/04/05 02:50:50;;;;;;;;;20.75;17.75;;;;;9.36;45.72;101839.19;6277667;22;46687;-66
2023/04/05 02:53:17;;;;;;;;;19.25;15.75;;;;;9.35;45.85;101854.28;6277931;22;45345;-66
2023/04/05 02:55:42;;;;;;;;;17.25;14.50;;;;;9.13;45.39;101815.44;6250020;22;45402;-66
2023/04/05 02:58:08;;;;;;;;;17.00;15.25;;;;;9.22;45.75;101832.22;6277345;22;45517;-66
2023/04/05 03:00:33;;;;;;;;;19.75;15.00;;;;;9.24;45.86;101838.41;6277455;22;45555;-66
2023/04/05 03:02:59;;;;;;;;;19.75;15.50;;;;;9.20;45.86;101836.66;6277688;22;45517;-66
2023/04/05 03:05:24;;;;;;;;;19.50;15.75;;;;;9.23;45.28;101851.75;6277871;22;45217;-66
2023/04/05 03:07:51;;;;;;;;;19.00;17.00;;;;;8.97;45.58;101799.59;6276466;22;45233;-66
2023/04/05 03:10:17;;;;;;;;;15.00;13.50;;;;;9.11;45.61;101826.09;6249447;22;48134;-66
2023/04/05 03:12:44;;;;;;;;;15.75;15.00;;;;;9.17;45.53;101843.81;6277435;22;45618;-66
2023/04/05 03:15:10;;;;;;;;;19.25;16.00;;;;;9.11;45.80;101826.09;6249839;22;45338;-66
2023/04/05 03:17:36;;;;;;;;;14.75;14.00;;;;;8.94;45.80;101802.28;6249291;22;45453;-66
2023/04/05 03:20:05;;;;;;;;;18.50;14.75;;;;;9.15;46.07;101842.94;6276389;22;46246;-66
2023/04/05 03:22:30;;;;;;;;;17.50;14.50;;;;;9.06;46.00;101828.81;6277592;22;45343;-66
2023/04/05 03:24:56;;;;;;;;;15.00;14.50;;;;;9.09;45.70;101836.78;6277559;22;45249;-66
2023/04/05 03:27:21;;;;;;;;;13.00;10.75;;;;;9.09;45.80;101849.22;6275515;22;45251;-66
2023/04/05 03:29:46;;;;;;;;;18.75;16.00;;;;;9.00;45.85;101831.50;6277061;22;45236;-66
2023/04/05 03:32:12;;;;;;;;;14.00;13.50;;;;;9.01;45.22;101843.94;6250014;22;45264;-66
2023/04/05 03:34:38;;;;;;;;;15.00;13.50;;;;;8.97;45.51;101843.97;6277940;22;45578;-66
2023/04/05 03:37:03;;;;;;;;;19.25;15.50;;;;;8.66;45.35;101798.97;6276656;22;52565;-66
2023/04/05 03:39:28;;;;;;;;;17.75;15.00;;;;;8.71;45.57;101808.66;6276322;22;50648;-66
2023/04/05 03:41:55;;;;;;;;;20.50;18.50;;;;;8.64;45.48;101796.31;6277475;22;45359;-66
2023/04/05 03:44:20;;;;;;;;;16.00;16.00;;;;;8.87;45.43;101854.72;6276892;22;45495;-66
2023/04/05 03:46:46;;;;;;;;;20.50;17.25;;;;;8.66;45.57;101823.78;6274652;22;47286;-66
2023/04/05 03:49:11;;;;;;;;;19.50;17.50;;;;;8.68;45.76;101815.78;6277137;22;46614;-66
2023/04/05 03:51:36;;;;;;;;;18.25;18.25;;;;;8.68;45.59;101813.13;6275641;22;45751;-66
2023/04/05 03:54:02;;;;;;;;;21.25;17.75;;;;;8.83;46.01;101846.75;6275841;22;45471;-66
2023/04/05 03:56:27;;;;;;;;;20.25;18.00;;;;;8.86;46.12;101838.75;6276560;22;45497;-66
2023/04/05 03:58:53;;;;;;;;;20.00;16.50;;;;;8.77;46.30;101826.41;6275396;22;46954;-66
2023/04/05 04:01:18;;;;;;;;;15.50;13.50;;;;;8.82;46.56;101835.22;6277318;22;45256;-66
2023/04/05 04:03:43;;;;;;;;;10.75;8.25;;;;;8.88;46.59;101850.25;6277680;22;45291;-66
2023/04/05 04:06:09;;;;;;;;;19.75;17.25;;;;;8.81;46.56;101821.91;6274780;22;45694;-65
2023/04/05 04:08:35;;;;;;;;;17.25;15.00;;;;;8.84;46.66;101824.56;6277052;22;46099;-66
2023/04/05 04:11:00;;;;;;;;;20.00;15.75;;;;;8.88;46.78;101837.81;6277331;22;45299;-66
2023/04/05 04:13:25;;;;;;;;;20.75;18.50;;;;;8.87;46.41;101832.50;6276759;22;45304;-65
2023/04/05 04:15:51;;;;;;;;;16.25;14.50;;;;;8.84;46.33;101827.22;6277698;22;45498;-66
2023/04/05 04:18:16;;;;;;;;;17.25;16.25;;;;;8.72;46.65;101812.22;6248885;22;48356;-66
2023/04/05 04:20:42;;;;;;;;;19.75;17.75;;;;;8.92;46.93;101838.69;6275367;22;45322;-66
2023/04/05 04:23:09;;;;;;;;;25.50;20.50;;;;;8.83;47.73;101821.00;6276881;22;45249;-66
2023/04/05 04:25:38;;;;;;;;;24.25;23.00;;;;;8.80;47.49;101809.50;6275170;22;45447;-66
2023/04/05 04:28:05;;;;;;;;;19.50;19.50;;;;;8.86;47.92;101820.09;6276085;22;45403;-65
2023/04/05 04:30:33;;;;;;;;;24.00;21.50;;;;;8.84;48.06;101828.09;6277162;22;45581;-65
2023/04/05 04:33:03;;;;;;;;;18.00;17.00;;;;;8.90;48.01;101835.16;6249176;22;45363;-65
2023/04/05 04:35:32;;;;;;;;;23.50;19.75;;;;;8.88;47.73;101832.50;6276532;22;45233;-66
2023/04/05 04:38:06;;;;;;;;;25.00;22.50;;;;;8.86;48.05;101836.94;6247335;22;48135;-65
2023/04/05 04:40:46;;;;;;;;;22.25;20.75;;;;;8.79;48.27;101834.38;6249479;22;45718;-66
2023/04/05 04:43:17;;;;;;;;;23.25;23.00;;;;;8.64;48.28;101795.44;6277259;22;45307;-65
2023/04/05 04:45:46;;;;;;;;;22.50;20.00;;;;;8.70;48.26;101809.59;6277290;22;45424;-65
2023/04/05 04:48:13;;;;;;;;;23.25;21.50;;;;;8.85;48.33;101831.63;6275607;22;45348;-65
2023/04/05 04:50:39;;;;;;;;;29.25;20.00;;;;;8.84;48.44;101828.09;6277144;22;45266;-65
2023/04/05 04:53:05;;;;;;;;;21.75;21.75;;;;;8.77;48.23;101814.84;6277292;22;45330;-65
2023/04/05 04:55:32;;;;;;;;;29.75;22.00;;;;;8.81;47.80;101817.47;6249677;22;45517;-66
2023/04/05 04:57:58;;;;;;;;;26.25;24.50;;;;;8.89;48.00;101828.06;6276115;22;45322;-65
2023/04/05 05:00:24;;;;;;;;;19.25;18.00;;;;;8.83;48.16;101821.00;6248364;22;45314;-65
2023/04/05 05:02:51;;;;;;;;;24.25;21.25;;;;;8.81;48.56;101817.47;6249277;22;45347;-65
2023/04/05 05:05:17;;;;;;;;;24.75;23.50;;;;;8.91;48.52;101826.28;6276567;22;45332;-66
2023/04/05 05:07:42;;;;;;;;;18.50;17.00;;;;;8.85;48.31;101824.56;6274918;22;46125;-65
2023/04/05 05:10:11;;;;;;;;;25.25;22.00;;;;;8.85;48.42;101827.22;6276549;22;45240;-65
2023/04/05 05:12:37;;;;;;;;;24.50;22.50;;;;;8.86;48.16;101820.09;6241972;22;45363;-66
2023/04/05 05:15:03;;;;;;;;;21.00;21.00;;;;;8.58;48.50;101782.16;6275391;22;45398;-66
2023/04/05 05:17:28;;;;;;;;;23.00;21.25;;;;;8.70;48.28;101801.59;6274537;22;46344;-66
2023/04/05 05:19:54;;;;;;;;;24.25;22.00;;;;;8.61;48.35;101793.66;6275625;22;45357;-66
2023/04/05 05:22:19;;;;;;;;;21.75;19.75;;;;;8.56;48.72;101784.84;6275298;22;45347;-66
2023/04/05 05:24:45;;;;;;;;;27.50;23.00;;;;;8.69;48.77;101801.59;6275556;22;45612;-63
2023/04/05 05:27:11;;;;;;;;;19.75;19.75;;;;;8.58;48.48;101782.16;6276276;22;45319;-63
2023/04/05 05:29:36;;;;;;;;;24.75;22.50;;;;;8.76;48.53;101813.97;6276014;22;45404;-63
2023/04/05 05:32:01;;;;;;;;;21.50;18.50;;;;;8.74;48.68;101823.75;6273465;22;55994;-64
2023/04/05 05:34:27;;;;;;;;;26.50;23.00;;;;;8.76;48.40;101829.94;6276154;22;45305;-66
2023/04/05 05:36:54;;;;;;;;;23.00;23.00;;;;;8.70;48.57;101827.31;6276309;22;46110;-66
2023/04/05 05:39:19;;;;;;;;;27.50;22.25;;;;;8.65;48.43;101827.38;6277050;22;45247;-66
2023/04/05 05:41:45;;;;;;;;;22.50;21.00;;;;;8.48;48.57;101806.16;6275883;22;45246;-67
2023/04/05 05:44:10;;;;;;;;;26.75;24.25;;;;;8.51;48.63;101814.13;6275918;22;45464;-66
2023/04/05 05:46:36;;;;;;;;;24.25;23.00;;;;;8.60;48.59;101821.16;6275968;22;45387;-66
2023/04/05 05:49:01;;;;;;;;;26.00;23.00;;;;;8.51;48.89;101816.78;6276861;22;45366;-66
2023/04/05 05:51:26;;;;;;;;;25.50;22.75;;;;;8.50;48.55;101817.72;6277957;22;45304;-66
2023/04/05 05:53:52;;;;;;;;;19.25;18.50;;;;;8.48;49.09;101807.94;6274052;22;45256;-66
2023/04/05 05:56:17;;;;;;;;;23.75;21.25;;;;;8.52;48.96;101815.91;6277392;22;45238;-66
2023/04/05 05:58:42;;;;;;;;;24.00;20.00;;;;;8.40;48.99;101793.78;6276701;22;45412;-66
2023/04/05 06:01:10;;;;;;;;;26.75;21.00;;;;;8.51;49.08;101814.13;6277425;22;45560;-65
2023/04/05 06:03:36;;;;;;;;;22.25;20.00;;;;;8.48;48.69;101798.19;6249613;22;45355;-65
2023/04/05 06:06:04;;;;;;;;;25.50;23.00;;;;;8.61;49.16;101819.41;6249983;22;45940;-65
2023/04/05 06:08:30;;;;;;;;;27.00;21.50;;;;;8.64;49.12;101824.72;6277658;22;45681;-71
2023/04/05 06:10:57;;;;;;;;;22.50;19.25;;;;;8.44;49.14;101799.13;6277758;22;45267;-65
2023/04/05 06:13:22;;;;;;;;;27.75;25.50;;;;;8.45;48.89;101798.22;6277390;22;45363;-65
2023/04/05 06:15:48;;;;;;;;;23.50;18.75;;;;;8.58;48.36;101822.09;6277859;22;46161;-65
2023/04/05 06:18:14;;;;;;;;;21.75;19.25;;;;;8.59;48.46;101824.75;6249265;22;45601;-65
2023/04/05 06:20:40;;;;;;;;;28.25;22.75;;;;;8.51;48.96;101816.78;6249991;22;45357;-65
2023/04/05 06:23:08;;;;;;;;;19.75;18.25;;;;;8.62;48.62;101840.69;6278059;22;45487;-65
2023/04/05 06:25:34;;;;;;;;;26.25;23.00;;;;;8.43;48.65;101807.97;6276800;22;45255;-65
2023/04/05 06:28:01;;;;;;;;;25.50;21.25;;;;;8.52;48.41;101820.38;6276526;22;45320;-65
2023/04/05 06:30:26;;;;;;;;;22.25;19.50;;;;;8.57;48.49;101838.94;6248021;22;45564;-64
2023/04/05 06:32:53;;;;;;;;;20.00;17.75;;;;;8.60;48.37;101849.56;6277195;22;45224;-65
2023/04/05 06:35:20;;;;;;;;;25.50;22.25;;;;;8.56;48.77;101831.88;6277109;22;46515;-64
2023/04/05 06:37:45;;;;;;;;;24.50;18.50;;;;;8.65;48.60;101856.66;6277102;22;45329;-64
2023/04/05 06:40:11;;;;;;;;;25.25;22.25;;;;;8.49;48.90;101815.94;6277246;22;45389;-64
2023/04/05 06:42:36;;;;;;;;;28.25;25.00;;;;;8.51;48.56;101822.13;6277735;22;45442;-65
2023/04/05 06:45:03;;;;;;;;;28.00;25.50;;;;;8.59;48.84;101831.84;6277744;22;45455;-64
2023/04/05 06:47:28;;;;;;;;;25.75;23.25;;;;;8.58;48.91;101838.94;6277006;22;45596;-65
2023/04/05 06:49:54;;;;;;;;;32.50;28.75;;;;;8.61;48.64;101833.59;6277492;22;45416;-64
2023/04/05 06:52:19;;;;;;;;;27.50;25.50;;;;;8.60;48.29;101850.44;6277979;22;45311;-64
2023/04/05 06:54:45;;;;;;;;;35.75;24.50;;;;;8.53;48.80;101830.97;6276274;22;47147;-65
2023/04/05 06:57:10;;;;;;;;;29.00;24.00;;;;;8.48;48.45;101819.47;6275277;22;45311;-64
2023/04/05 06:59:35;;;;;;;;;20.00;20.00;;;;;8.62;48.60;101842.44;6247306;22;45287;-66
2023/04/05 07:02:01;;;;;;;;;26.50;23.00;;;;;8.66;48.53;101849.53;6277574;22;45233;-65
2023/04/05 07:04:28;;;;;;;;;24.25;23.00;;;;;8.55;48.96;101822.09;6277602;22;45874;-66
2023/04/05 07:06:53;;;;;;;;;28.00;26.50;;;;;8.55;48.24;101822.97;6277144;22;45352;-65
2023/04/05 07:09:19;;;;;;;;;30.75;24.50;;;;;8.58;48.60;101824.75;6278091;22;45306;-65
2023/04/05 07:11:44;;;;;;;;;24.25;23.00;;;;;8.72;48.61;101849.50;6274717;22;45443;-64
2023/04/05 07:14:10;;;;;;;;;33.00;27.25;;;;;8.73;48.63;101848.59;6275571;22;46681;-64
2023/04/05 07:16:35;;;;;;;;;37.25;30.75;;;;;8.75;48.53;101848.59;6249471;22;45339;-64
2023/04/05 07:19:00;;;;;;;;;26.50;25.50;;;;;8.82;48.66;101859.19;6249684;22;45256;-64
2023/04/05 07:21:26;;;;;;;;;33.50;24.75;;;;;8.84;48.41;101854.72;6277607;22;45472;-67
2023/04/05 07:23:52;;;;;;;;;32.50;25.25;;;;;8.92;48.84;101868.00;6249745;22;46554;-66
2023/04/05 07:26:18;;;;;;;;;32.25;29.50;;;;;8.92;48.80;101860.00;6248851;22;45662;-66
2023/04/05 07:28:43;;;;;;;;;29.25;27.50;;;;;8.91;48.75;101855.56;6249809;22;45351;-66
2023/04/05 07:31:08;;;;;;;;;34.00;28.50;;;;;9.04;48.35;101870.56;6277811;22;45714;-66
2023/04/05 07:33:34;;;;;;;;;24.25;23.50;;;;;8.83;48.06;101817.47;6277518;22;45413;-66
2023/04/05 07:35:59;;;;;;;;;31.50;27.50;;;;;9.16;48.41;101861.56;6277672;22;45236;-66
2023/04/05 07:38:26;;;;;;;;;34.50;28.00;;;;;9.19;47.86;101869.53;6277784;22;45194;-66
2023/04/05 07:40:51;;;;;;;;;30.75;27.00;;;;;9.13;47.85;101842.94;6277828;22;45424;-65
2023/04/05 07:43:19;;;;;;;;;18.50;18.00;;;;;9.33;47.40;101861.41;6277406;22;45248;-66
2023/04/05 07:45:45;;;;;;;;;27.25;25.50;;;;;9.11;47.66;101823.44;6249192;22;45895;-66
2023/04/05 07:48:10;;;;;;;;;24.75;23.00;;;;;9.39;47.28;101866.69;6274760;22;45433;-67
2023/04/05 07:50:38;;;;;;;;;26.75;25.00;;;;;9.16;47.36;101810.97;6249055;22;45295;-66
2023/04/05 07:53:03;;;;;;;;;28.75;27.00;;;;;9.30;46.85;101817.94;6242558;22;48062;-66
2023/04/05 07:55:29;;;;;;;;;28.50;24.25;;;;;9.45;46.55;101834.66;6269341;22;45471;-66
2023/04/05 07:57:54;;;;;;;;;28.25;26.00;;;;;9.54;46.63;101851.44;6276837;22;45496;-66
2023/04/05 08:00:21;;;;;;;;;28.00;26.50;;;;;9.53;46.90;101841.69;6277189;22;45364;-66
2023/04/05 08:02:46;;;;;;;;;29.25;24.50;;;;;9.59;46.44;101842.50;6276585;22;45293;-66
2023/04/05 08:05:11;;;;;;;;;30.75;28.75;;;;;9.41;46.21;101808.06;6277456;22;45263;-66
2023/04/05 08:07:37;;;;;;;;;28.75;27.75;;;;;9.49;45.98;101819.53;6275168;22;45336;-66
2023/04/05 08:10:03;;;;;;;;;30.25;27.50;;;;;9.59;46.22;101834.50;6248053;22;45627;-66
2023/04/05 08:12:30;;;;;;;;;26.25;21.50;;;;;9.52;46.22;101821.25;6248183;22;47343;-66
2023/04/05 08:14:56;;;;;;;;;35.50;28.25;;;;;9.62;45.18;101825.59;6276912;22;45837;-66
2023/04/05 08:17:22;;;;;;;;;30.75;28.25;;;;;9.46;45.33;101790.22;6248882;22;45327;-66
2023/04/05 08:19:48;;;;;;;;;28.50;22.50;;;;;9.75;44.90;101837.00;6248069;22;45386;-67
2023/04/05 08:22:15;;;;;;;;;30.25;25.00;;;;;9.83;45.46;101840.47;6275554;22;45514;-66
2023/04/05 08:24:40;;;;;;;;;34.00;26.50;;;;;9.78;44.45;101832.50;6274549;22;45232;-66
2023/04/05 08:27:06;;;;;;;;;21.75;19.50;;;;;9.83;44.84;101853.78;6248425;22;45603;-66
2023/04/05 08:29:31;;;;;;;;;30.50;26.50;;;;;9.67;44.81;101833.53;6277434;22;45537;-66
2023/04/05 08:31:57;;;;;;;;;24.75;22.50;;;;;9.84;44.53;101866.25;6272649;22;46432;-66
2023/04/05 08:34:22;;;;;;;;;23.50;22.25;;;;;9.73;44.45;101838.81;6276821;22;45300;-68
2023/04/05 08:36:48;;;;;;;;;27.00;24.00;;;;;9.95;44.23;101858.97;6247499;22;45478;-78
2023/04/05 08:39:14;;;;;;;;;23.00;21.75;;;;;9.87;44.91;101826.19;6275844;22;45442;-68
2023/04/05 08:41:45;;;;;;;;;22.75;19.00;;;;;9.98;45.12;101837.59;6274491;22;45583;-67
2023/04/05 08:44:12;;;;;;;;;29.00;24.00;;;;;9.88;44.54;101813.75;6276009;22;45579;-66
2023/04/05 08:46:38;;;;;;;;;22.75;22.25;;;;;10.14;44.55;101845.41;6275646;22;45277;-65
2023/04/05 08:49:07;;;;;;;;;25.00;22.00;;;;;10.26;44.64;101858.59;6246814;22;45918;-65
2023/04/05 08:51:36;;;;;;;;;24.25;20.50;;;;;10.36;44.16;101857.59;6275650;22;46049;-64
2023/04/05 08:54:03;;;;;;;;;13.75;9.25;;;;;10.34;43.66;101843.41;6276803;22;45378;-65
2023/04/05 08:56:33;;;;;;;;;22.50;20.50;;;;;10.48;43.70;101864.56;6274641;22;45431;-65
2023/04/05 08:59:05;;;;;;;;;25.50;21.25;;;;;10.20;43.58;101803.50;6275855;22;45338;-65
2023/04/05 09:01:32;;;;;;;;;20.00;17.00;;;;;10.53;42.60;101864.50;6276080;22;46117;-65
2023/04/05 09:04:06;;;;;;;;;24.75;24.00;;;;;10.42;42.51;101848.63;6273192;22;45395;-65
2023/04/05 09:06:34;;;;;;;;;24.50;20.25;;;;;10.51;42.61;101843.16;6272186;22;45654;-65
2023/04/05 09:09:00;;;;;;;;;24.50;20.75;;;;;10.61;42.65;101851.94;6244606;22;45439;-65
2023/04/05 09:11:26;;;;;;;;;22.75;19.50;;;;;10.46;42.99;101822.78;6275198;22;45359;-65
2023/04/05 09:13:51;;;;;;;;;19.25;18.50;;;;;10.63;42.29;101847.44;6246827;22;45272;-65
2023/04/05 09:16:18;;;;;;;;;20.75;18.50;;;;;10.77;42.04;101862.38;6275071;22;45351;-65
2023/04/05 09:18:43;;;;;;;;;21.50;20.25;;;;;10.44;41.75;101793.44;6247130;22;45480;-65
2023/04/05 09:21:09;;;;;;;;;26.50;25.50;;;;;10.71;41.71;101839.31;6275260;22;45472;-65
2023/04/05 09:23:35;;;;;;;;;25.00;20.25;;;;;10.66;42.07;101815.34;6276656;22;45259;-65
2023/04/05 09:26:18;;;;;;;;;24.00;21.50;;;;;10.86;40.97;101859.53;6273896;22;45390;-65
2023/04/05 09:28:43;;;;;;;;;26.25;20.50;;;;;10.82;41.47;101849.81;6276150;22;45360;-65
2023/04/05 09:31:08;;;;;;;;;29.50;23.75;;;;;10.88;41.82;101852.41;6275012;22;46518;-65
2023/04/05 09:33:35;;;;;;;;;18.50;17.75;;;;;10.94;41.79;101853.19;6276429;22;45348;-65
2023/04/05 09:36:01;;;;;;;;;21.75;17.50;;;;;10.84;40.87;101823.97;6246799;22;45336;-65
2023/04/05 09:38:43;;;;;;;;;21.75;19.25;;;;;10.99;40.48;101839.75;6276666;22;45438;-65
2023/04/05 09:41:11;;;;;;;;;22.25;18.00;;;;;11.00;40.39;101833.50;6275975;22;46298;-65
2023/04/05 09:43:39;;;;;;;;;21.75;19.00;;;;;11.15;40.70;101855.53;6277255;22;45306;-65
2023/04/05 09:46:04;;;;;;;;;24.00;20.50;;;;;11.09;40.41;101825.34;6276684;22;45340;-65
2023/04/05 09:48:46;;;;;;;;;18.50;17.50;;;;;11.18;40.33;101837.66;6243942;22;45554;-65
2023/04/05 09:51:12;;;;;;;;;20.00;19.25;;;;;11.29;40.14;101843.69;6246709;22;46401;-65
2023/04/05 09:53:56;;;;;;;;;22.25;20.75;;;;;11.21;40.75;101812.66;6246617;22;45646;-65
2023/04/05 09:56:22;;;;;;;;;21.00;19.25;;;;;11.32;40.34;101826.72;6241097;22;45594;-65
2023/04/05 09:58:50;;;;;;;;;20.50;17.25;;;;;11.35;40.08;101823.13;6243872;22;45870;-65
2023/04/05 10:01:15;;;;;;;;;18.25;17.00;;;;;11.42;39.56;101822.94;6243554;22;47187;-65
2023/04/05 10:03:50;;;;;;;;;19.25;18.50;;;;;11.46;40.05;101824.69;6243741;22;45547;-65
2023/04/05 10:06:18;;;;;;;;;19.00;15.50;;;;;11.50;39.82;101829.03;6244611;22;45490;-65
2023/04/05 10:08:46;;;;;;;;;29.00;24.00;;;;;11.66;39.76;101837.66;6245240;22;45422;-65
2023/04/05 10:11:12;;;;;;;;;27.00;26.50;;;;;11.57;39.67;101823.59;6246100;22;45536;-65
2023/04/05 10:13:39;;;;;;;;;21.75;21.00;;;;;11.71;39.13;101836.69;6245403;22;45419;-66
2023/04/05 10:16:10;;;;;;;;;23.75;22.25;;;;;11.65;38.67;101819.84;6243534;22;45367;-66
2023/04/05 10:18:46;;;;;;;;;16.25;15.00;;;;;11.82;39.05;101830.19;6245397;22;45334;-66
2023/04/05 10:21:14;;;;;;;;;25.50;24.00;;;;;11.75;38.62;101808.97;6243998;22;45438;-66
2023/04/05 10:23:43;;;;;;;;;23.25;22.75;;;;;11.71;38.98;101805.47;6245122;22;45262;-66
2023/04/05 10:26:40;;;;;;;;;24.00;17.75;;;;;11.80;38.68;101807.09;6243101;22;45347;-66
2023/04/05 10:29:16;;;;;;;;;24.75;21.25;;;;;11.89;38.45;101820.25;6246349;22;45437;-66
2023/04/05 10:31:50;;;;;;;;;25.75;22.50;;;;;11.76;38.46;101792.00;6244681;22;45416;-66
2023/04/05 10:34:36;;;;;;;;;19.75;19.25;;;;;11.93;38.61;101805.03;6245614;22;45402;-66
2023/04/05 10:37:02;;;;;;;;;19.75;19.00;;;;;11.85;37.79;101776.63;6268859;22;45461;-66
2023/04/05 10:39:40;;;;;;;;;21.25;19.25;;;;;12.05;37.63;101811.03;6245098;22;45745;-66
2023/04/05 10:42:12;;;;;;;;;23.25;18.75;;;;;12.08;37.57;101791.38;6246883;22;45247;-66
2023/04/05 10:44:39;;;;;;;;;24.00;21.50;;;;;12.06;37.55;101774.44;6243618;22;45682;-66
2023/04/05 10:47:09;;;;;;;;;26.00;20.50;;;;;12.02;36.79;101760.25;6243308;22;45352;-66
2023/04/05 10:49:47;;;;;;;;;24.25;21.75;;;;;12.17;37.08;101777.75;6241349;22;45619;-66
2023/04/05 10:52:13;;;;;;;;;23.75;23.75;;;;;12.21;37.12;101776.78;6243216;22;48040;-66
2023/04/05 10:54:39;;;;;;;;;23.00;21.50;;;;;12.27;37.26;101777.56;6245359;22;45219;-66
2023/04/05 10:57:08;;;;;;;;;22.50;20.25;;;;;12.36;37.39;101786.28;6244987;22;45383;-66
2023/04/05 10:59:38;;;;;;;;;23.75;22.50;;;;;12.44;37.17;101786.06;6245328;22;45575;-66
2023/04/05 11:02:05;;;;;;;;;26.00;24.50;;;;;12.41;36.66;101770.06;6244387;22;48041;-66
2023/04/05 11:04:32;;;;;;;;;25.00;24.00;;;;;12.46;36.42;101781.56;6244146;22;45477;-66
2023/04/05 11:07:14;;;;;;;;;30.75;27.75;;;;;12.52;36.66;101775.19;6242915;22;45325;-66
2023/04/05 11:09:52;;;;;;;;;30.25;25.75;;;;;12.51;36.73;101768.97;6240557;22;45351;-66
2023/04/05 11:12:17;;;;;;;;;29.00;26.50;;;;;12.36;36.09;101737.19;6241183;22;45501;-67
2023/04/05 11:14:43;;;;;;;;;24.00;22.50;;;;;12.34;36.51;101721.16;6239436;22;45372;-66